createdAt,value
2022-08-28T00:02:06.242Z,95810.09
2022-08-28T00:04:34.531Z,95759.84
2022-08-28T00:07:04.711Z,95809.00
2022-08-28T00:09:32.691Z,95794.19
2022-08-28T00:12:00.404Z,95772.53
2022-08-28T00:14:28.417Z,95807.78
2022-08-28T00:16:56.637Z,95808.38
2022-08-28T00:19:25.324Z,95795.44
2022-08-28T00:21:53.973Z,95812.72
2022-08-28T00:24:23.277Z,95773.13
2022-08-28T00:27:08.360Z,95803.22
2022-08-28T00:29:36.078Z,95823.13
2022-08-28T00:32:05.511Z,95773.59
2022-08-28T00:34:33.787Z,95811.94
2022-08-28T00:37:02.024Z,95813.50
2022-08-28T00:39:31.218Z,95755.22
2022-08-28T00:41:59.464Z,95762.97
2022-08-28T00:44:29.759Z,95811.94
2022-08-28T00:47:00.007Z,95798.03
2022-08-28T00:49:31.339Z,95793.34
2022-08-28T00:52:12.510Z,95815.94
2022-08-28T00:54:58.598Z,95808.19
2022-08-28T00:57:31.863Z,95810.75
2022-08-28T00:59:59.894Z,95767.91
2022-08-28T01:02:27.705Z,95745.53
2022-08-28T01:04:56.368Z,95792.03
2022-08-28T01:07:24.142Z,95709.56
2022-08-28T01:09:55.602Z,95796.50
2022-08-28T01:12:26.013Z,95809.84
2022-08-28T01:14:59.938Z,95776.44
2022-08-28T01:17:31.218Z,95802.41
2022-08-28T01:20:03.776Z,95801.63
2022-08-28T01:22:37.879Z,95801.00
2022-08-28T01:25:09.831Z,95800.53
2022-08-28T01:27:37.705Z,95798.19
2022-08-28T01:30:06.465Z,95798.97
2022-08-28T01:32:36.842Z,95794.75
2022-08-28T01:35:06.787Z,95798.06
2022-08-28T01:37:34.455Z,95762.19
2022-08-28T01:40:02.397Z,95789.16
2022-08-28T01:42:31.521Z,95792.03
2022-08-28T01:44:59.205Z,95788.06
2022-08-28T01:47:26.896Z,95791.94
2022-08-28T01:49:54.580Z,95799.84
2022-08-28T01:52:26.253Z,95797.50
2022-08-28T01:54:54.293Z,95782.72
2022-08-28T01:57:24.787Z,95775.13
2022-08-28T01:59:54.478Z,95740.66
2022-08-28T02:02:22.344Z,95788.72
2022-08-28T02:04:50.538Z,95732.28
2022-08-28T02:07:18.323Z,95789.16
2022-08-28T02:09:46.031Z,95730.78
2022-08-28T02:12:13.714Z,95766.09
2022-08-28T02:14:41.748Z,95786.94
2022-08-28T02:17:11.561Z,95791.03
2022-08-28T02:19:39.211Z,95778.44
2022-08-28T02:22:08.319Z,95792.28
2022-08-28T02:24:36.196Z,95788.38
2022-08-28T02:27:05.448Z,95729.09
2022-08-28T02:29:33.205Z,95766.75
2022-08-28T02:32:00.928Z,95754.41
2022-08-28T02:34:29.952Z,95779.34
2022-08-28T02:36:57.671Z,95740.66
2022-08-28T02:39:25.595Z,95747.88
2022-08-28T02:41:53.291Z,95678.81
2022-08-28T02:44:21.048Z,95747.88
2022-08-28T02:46:48.757Z,95769.44
2022-08-28T02:49:16.443Z,95792.94
2022-08-28T02:51:45.829Z,95788.25
2022-08-28T02:54:13.524Z,95789.03
2022-08-28T02:56:45.292Z,95790.22
2022-08-28T02:59:13.461Z,95799.38
2022-08-28T03:01:41.307Z,95762.53
2022-08-28T03:04:09.089Z,95794.94
2022-08-28T03:06:36.755Z,95791.16
2022-08-28T03:09:06.477Z,95715.47
2022-08-28T03:11:34.797Z,95767.66
2022-08-28T03:14:03.425Z,95737.63
2022-08-28T03:16:32.366Z,95764.63
2022-08-28T03:19:00.075Z,95751.91
2022-08-28T03:21:27.785Z,95790.28
2022-08-28T03:23:55.424Z,95734.56
2022-08-28T03:26:24.824Z,95716.06
2022-08-28T03:28:54.380Z,95789.81
2022-08-28T03:31:24.653Z,95754.13
2022-08-28T03:33:53.214Z,95792.03
2022-08-28T03:36:24.209Z,95792.69
2022-08-28T03:38:54.353Z,95772.84
2022-08-28T03:41:25.441Z,95798.47
2022-08-28T03:43:53.135Z,95792.16
2022-08-28T03:46:23.767Z,95802.06
2022-08-28T03:48:52.370Z,95793.09
2022-08-28T03:51:25.507Z,95799.56
2022-08-28T03:53:58.356Z,95803.44
2022-08-28T03:56:29.182Z,95774.94
2022-08-28T03:58:59.972Z,95758.84
2022-08-28T04:01:28.039Z,95757.31
2022-08-28T04:03:56.993Z,95813.94
2022-08-28T04:06:24.751Z,95773.06
2022-08-28T04:08:52.514Z,95794.59
2022-08-28T04:11:20.200Z,95792.03
2022-08-28T04:13:49.266Z,95796.66
2022-08-28T04:16:19.185Z,95769.81
2022-08-28T04:18:49.307Z,95799.38
2022-08-28T04:21:19.639Z,95802.50
2022-08-28T04:23:48.168Z,95794.00
2022-08-28T04:26:18.938Z,95725.09
2022-08-28T04:28:47.492Z,95799.00
2022-08-28T04:31:17.505Z,95810.50
2022-08-28T04:33:45.543Z,95801.34
2022-08-28T04:36:15.415Z,95826.16
2022-08-28T04:38:44.274Z,95782.84
2022-08-28T04:41:14.012Z,95728.22
2022-08-28T04:43:41.762Z,95798.69
2022-08-28T04:46:11.967Z,95816.75
2022-08-28T04:48:42.624Z,95801.34
2022-08-28T04:51:12.247Z,95812.06
2022-08-28T04:53:40.978Z,95796.66
2022-08-28T04:56:12.324Z,95817.41
2022-08-28T04:58:41.332Z,95809.25
2022-08-28T05:01:11.193Z,95827.84
2022-08-28T05:03:41.051Z,95803.81
2022-08-28T05:06:09.467Z,95803.88
2022-08-28T05:08:37.176Z,95844.97
2022-08-28T05:11:14.257Z,95762.63
2022-08-28T05:14:02.316Z,95828.97
2022-08-28T05:16:30.201Z,95832.09
2022-08-28T05:19:02.004Z,95838.06
2022-08-28T05:21:29.890Z,95735.84
2022-08-28T05:23:59.235Z,95841.47
2022-08-28T05:26:29.893Z,95842.00
2022-08-28T05:28:59.226Z,95842.63
2022-08-28T05:31:28.802Z,95808.19
2022-08-28T05:33:57.030Z,95840.53
2022-08-28T05:36:32.345Z,95842.00
2022-08-28T05:39:01.328Z,95796.09
2022-08-28T05:41:30.994Z,95831.94
2022-08-28T05:44:00.158Z,95765.50
2022-08-28T05:46:29.370Z,95852.91
2022-08-28T05:48:57.717Z,95852.13
2022-08-28T05:51:27.873Z,95851.03
2022-08-28T05:53:57.533Z,95851.69
2022-08-28T05:56:29.536Z,95850.09
2022-08-28T05:58:57.542Z,95858.16
2022-08-28T06:01:28.552Z,95857.25
2022-08-28T06:03:59.213Z,95863.47
2022-08-28T06:06:30.561Z,95784.97
2022-08-28T06:08:59.738Z,95855.81
2022-08-28T06:11:30.708Z,95839.41
2022-08-28T06:14:01.544Z,95859.66
2022-08-28T06:16:30.024Z,95858.72
2022-08-28T06:18:57.907Z,95864.66
2022-08-28T06:21:26.007Z,95726.44
2022-08-28T06:23:55.096Z,95864.19
2022-08-28T06:26:22.996Z,95859.25
2022-08-28T06:28:51.174Z,95858.09
2022-08-28T06:31:24.311Z,95869.53
2022-08-28T06:33:53.994Z,95844.31
2022-08-28T06:36:22.013Z,95874.34
2022-08-28T06:38:49.730Z,95875.91
2022-08-28T06:41:19.630Z,95811.94
2022-08-28T06:43:47.307Z,95861.78
2022-08-28T06:46:15.106Z,95884.34
2022-08-28T06:48:42.859Z,95824.28
2022-08-28T06:51:13.263Z,95882.03
2022-08-28T06:53:42.919Z,95886.28
2022-08-28T06:56:16.179Z,95842.94
2022-08-28T06:58:57.182Z,95885.28
2022-08-28T07:01:29.338Z,95887.16
2022-08-28T07:04:00.284Z,95883.94
2022-08-28T07:06:31.744Z,95819.72
2022-08-28T07:08:59.466Z,95827.19
2022-08-28T07:11:29.729Z,95896.75
2022-08-28T07:13:59.276Z,95885.06
2022-08-28T07:16:29.377Z,95893.41
2022-08-28T07:18:57.454Z,95884.06
2022-08-28T07:21:25.598Z,95865.59
2022-08-28T07:23:53.499Z,95903.69
2022-08-28T07:26:23.893Z,95891.84
2022-08-28T07:28:51.728Z,95887.63
2022-08-28T07:31:22.862Z,95808.69
2022-08-28T07:33:53.996Z,95895.16
2022-08-28T07:36:29.649Z,95876.19
2022-08-28T07:38:58.996Z,95910.81
2022-08-28T07:41:28.662Z,95854.09
2022-08-28T07:44:14.457Z,95887.41
2022-08-28T07:46:43.530Z,95924.06
2022-08-28T07:49:12.007Z,95904.00
2022-08-28T07:51:40.096Z,95925.38
2022-08-28T07:54:10.184Z,95830.19
2022-08-28T07:56:45.636Z,95900.25
2022-08-28T07:59:13.926Z,95926.41
2022-08-28T08:01:48.098Z,95926.41
2022-08-28T08:04:17.203Z,95930.97
2022-08-28T08:06:46.810Z,95830.38
2022-08-28T08:09:16.815Z,95927.41
2022-08-28T08:11:44.803Z,95932.22
2022-08-28T08:14:13.093Z,95945.88
2022-08-28T08:16:43.373Z,95922.53
2022-08-28T08:19:14.963Z,95913.88
2022-08-28T08:21:43.770Z,95904.50
2022-08-28T08:24:19.978Z,95895.44
2022-08-28T08:26:55.207Z,95923.44
2022-08-28T08:29:31.386Z,95892.19
2022-08-28T08:32:04.871Z,95873.47
2022-08-28T08:34:36.318Z,95951.44
2022-08-28T08:37:05.543Z,95955.13
2022-08-28T08:39:33.392Z,95958.72
2022-08-28T08:42:03.306Z,95935.81
2022-08-28T08:44:34.590Z,95961.16
2022-08-28T08:47:14.993Z,95964.19
2022-08-28T08:49:51.144Z,95967.63
2022-08-28T08:52:31.030Z,95971.53
2022-08-28T08:55:20.065Z,95957.16
2022-08-28T08:57:52.791Z,95975.00
2022-08-28T09:00:22.765Z,95971.13
2022-08-28T09:02:57.231Z,95970.63
2022-08-28T09:05:39.778Z,95953.22
2022-08-28T09:08:13.533Z,95975.22
2022-08-28T09:10:49.154Z,95977.31
2022-08-28T09:13:26.318Z,95875.28
2022-08-28T09:15:54.357Z,95980.41
2022-08-28T09:18:25.914Z,95980.91
2022-08-28T09:20:58.138Z,95970.16
2022-08-28T09:23:29.835Z,95986.91
2022-08-28T09:26:01.784Z,95935.78
2022-08-28T09:28:34.250Z,95984.16
2022-08-28T09:31:06.369Z,95981.94
2022-08-28T09:33:38.934Z,95981.78
2022-08-28T09:36:38.755Z,95973.72
2022-08-28T09:39:13.243Z,95979.53
2022-08-28T09:42:08.077Z,95943.88
2022-08-28T09:44:50.868Z,95992.72
2022-08-28T09:47:49.061Z,95969.81
2022-08-28T09:50:33.447Z,95991.81
2022-08-28T09:53:18.273Z,95995.28
2022-08-28T09:55:54.870Z,95904.69
2022-08-28T09:58:24.291Z,95917.06
2022-08-28T10:01:08.635Z,95995.38
2022-08-28T10:03:44.576Z,95979.53
2022-08-28T10:06:19.988Z,95993.22
2022-08-28T10:09:01.251Z,95981.53
2022-08-28T10:11:37.544Z,95928.97
2022-08-28T10:14:19.972Z,95961.72
2022-08-28T10:16:57.314Z,96001.25
2022-08-28T10:19:36.191Z,95912.38
2022-08-28T10:22:17.984Z,95978.25
2022-08-28T10:25:02.553Z,95992.47
2022-08-28T10:27:42.276Z,95947.44
2022-08-28T10:30:14.566Z,96020.19
2022-08-28T10:32:59.945Z,96019.63
2022-08-28T10:35:39.779Z,96002.03
2022-08-28T10:38:12.766Z,95930.06
2022-08-28T10:40:46.168Z,96015.31
2022-08-28T10:43:17.279Z,96023.22
2022-08-28T10:45:45.509Z,96019.94
2022-08-28T10:48:21.675Z,95984.31
2022-08-28T10:50:54.226Z,95920.28
2022-08-28T10:53:25.790Z,95996.56
2022-08-28T10:56:00.084Z,95932.69
2022-08-28T10:58:28.610Z,95974.34
2022-08-28T11:01:01.136Z,95973.41
2022-08-28T11:03:34.745Z,96030.06
2022-08-28T11:06:10.098Z,96018.81
2022-08-28T11:08:39.605Z,96021.13
2022-08-28T11:11:14.797Z,96028.84
2022-08-28T11:13:47.919Z,96023.66
2022-08-28T11:16:23.034Z,96016.50
2022-08-28T11:19:17.332Z,96029.88
2022-08-28T11:21:48.958Z,96012.84
2022-08-28T11:24:44.058Z,96024.41
2022-08-28T11:27:23.555Z,96000.00
2022-08-28T11:30:32.703Z,96027.66
2022-08-28T11:33:04.229Z,95987.41
2022-08-28T11:35:42.943Z,96000.34
2022-08-28T11:38:11.329Z,96009.34
2022-08-28T11:40:55.221Z,96029.09
2022-08-28T11:43:36.471Z,95972.78
2022-08-28T11:46:19.910Z,95977.50
2022-08-28T11:48:53.407Z,96002.25
2022-08-28T11:51:40.974Z,95993.22
2022-08-28T11:54:20.761Z,96010.03
2022-08-28T11:56:55.293Z,96031.22
2022-08-28T11:59:41.008Z,95995.09
2022-08-28T12:02:40.610Z,96040.13
2022-08-28T12:05:11.037Z,96002.34
2022-08-28T12:07:40.147Z,95992.41
2022-08-28T12:10:57.996Z,95967.22
2022-08-28T12:13:47.445Z,96028.00
2022-08-28T12:16:15.881Z,96034.94
2022-08-28T12:19:02.657Z,96004.41
2022-08-28T12:21:32.043Z,96032.81
2022-08-28T12:24:22.803Z,96026.03
2022-08-28T12:26:57.101Z,96025.69
2022-08-28T12:29:31.389Z,95972.66
2022-08-28T12:32:24.950Z,95961.72
2022-08-28T12:35:08.834Z,95953.59
2022-08-28T12:37:52.288Z,95963.84
2022-08-28T12:40:23.141Z,96014.78
2022-08-28T12:42:55.907Z,95975.31
2022-08-28T12:45:28.015Z,95973.22
2022-08-28T12:48:00.106Z,95934.22
2022-08-28T12:50:34.964Z,95944.47
2022-08-28T12:53:05.490Z,95963.97
2022-08-28T12:55:34.096Z,96034.66
2022-08-28T12:58:03.236Z,95974.44
2022-08-28T13:00:35.715Z,96025.28
2022-08-28T13:03:08.307Z,96011.44
2022-08-28T13:05:39.658Z,96031.28
2022-08-28T13:08:09.987Z,96021.38
2022-08-28T13:10:41.185Z,95992.94
2022-08-28T13:13:19.306Z,96034.88
2022-08-28T13:15:51.054Z,95986.13
2022-08-28T13:18:42.569Z,96030.41
2022-08-28T13:21:34.279Z,96026.63
2022-08-28T13:24:40.567Z,95975.66
2022-08-28T13:27:24.268Z,96016.34
2022-08-28T13:30:06.836Z,96029.28
2022-08-28T13:32:37.219Z,96030.06
2022-08-28T13:35:16.637Z,95988.28
2022-08-28T13:37:47.896Z,96029.84
2022-08-28T13:40:44.459Z,96032.28
2022-08-28T13:43:11.403Z,95959.50
2022-08-28T13:45:44.562Z,96044.44
2022-08-28T13:48:16.846Z,96025.81
2022-08-28T13:50:48.146Z,96026.25
2022-08-28T13:53:18.686Z,96021.81
2022-08-28T13:55:47.469Z,95993.03
2022-08-28T13:58:15.919Z,96027.59
2022-08-28T14:00:47.610Z,95998.16
2022-08-28T14:03:33.481Z,96019.09
2022-08-28T14:06:02.494Z,96033.25
2022-08-28T14:08:30.525Z,96000.47
2022-08-28T14:10:59.523Z,96001.47
2022-08-28T14:13:27.906Z,96024.84
2022-08-28T14:15:57.879Z,96022.75
2022-08-28T14:18:26.603Z,95997.03
2022-08-28T14:20:54.383Z,96036.91
2022-08-28T14:23:23.021Z,96036.34
2022-08-28T14:25:50.790Z,96036.25
2022-08-28T14:28:19.133Z,96020.28
2022-08-28T14:30:48.972Z,95965.72
2022-08-28T14:33:20.646Z,96024.41
2022-08-28T14:35:49.714Z,96007.94
2022-08-28T14:38:18.421Z,96011.72
2022-08-28T14:40:46.299Z,96020.66
2022-08-28T14:43:15.305Z,96026.13
2022-08-28T14:45:45.116Z,96011.66
2022-08-28T14:48:12.963Z,95971.09
2022-08-28T14:50:43.327Z,96026.03
2022-08-28T14:53:11.753Z,96019.22
2022-08-28T14:55:41.934Z,96026.13
2022-08-28T14:58:09.586Z,95986.44
2022-08-28T15:00:41.433Z,96003.69
2022-08-28T15:03:09.900Z,96018.91
2022-08-28T15:05:37.658Z,96020.22
2022-08-28T15:08:09.428Z,95991.22
2022-08-28T15:10:38.405Z,96010.41
2022-08-28T15:13:07.710Z,95949.84
2022-08-28T15:15:36.574Z,96015.72
2022-08-28T15:18:04.537Z,96013.44
2022-08-28T15:20:32.654Z,96009.28
2022-08-28T15:23:00.350Z,95985.31
2022-08-28T15:25:29.395Z,96014.25
2022-08-28T15:27:57.057Z,96011.78
2022-08-28T15:30:24.726Z,96011.78
2022-08-28T15:32:52.685Z,96016.91
2022-08-28T15:35:20.317Z,96011.34
2022-08-28T15:37:48.039Z,96012.91
2022-08-28T15:40:32.497Z,95998.59
2022-08-28T15:43:01.571Z,96016.84
2022-08-28T15:45:30.381Z,95944.91
2022-08-28T15:47:58.909Z,96007.63
2022-08-28T15:50:26.557Z,95981.88
2022-08-28T15:52:54.224Z,95997.97
2022-08-28T15:55:21.879Z,96010.34
2022-08-28T15:57:51.613Z,96010.22
2022-08-28T16:00:20.886Z,96007.31
2022-08-28T16:02:48.614Z,96005.78
2022-08-28T16:05:16.970Z,96001.47
2022-08-28T16:07:44.689Z,96006.28
2022-08-28T16:10:13.425Z,95996.47
2022-08-28T16:12:41.466Z,95994.91
2022-08-28T16:15:10.552Z,95983.91
2022-08-28T16:17:39.635Z,95995.16
2022-08-28T16:20:11.100Z,95994.13
2022-08-28T16:22:41.448Z,95990.94
2022-08-28T16:25:10.648Z,96001.66
2022-08-28T16:27:38.274Z,96001.84
2022-08-28T16:30:15.856Z,96006.53
2022-08-28T16:32:46.796Z,96001.97
2022-08-28T16:35:15.852Z,95996.19
2022-08-28T16:37:43.997Z,95996.84
2022-08-28T16:40:14.907Z,95999.63
2022-08-28T16:42:51.771Z,95996.50
2022-08-28T16:45:27.168Z,95995.75
2022-08-28T16:48:06.022Z,95995.06
2022-08-28T16:50:33.751Z,95996.94
2022-08-28T16:53:06.701Z,95998.84
2022-08-28T16:55:35.404Z,96000.53
2022-08-28T16:58:03.124Z,96007.00
2022-08-28T17:00:32.100Z,96010.25
2022-08-28T17:03:01.210Z,96003.66
2022-08-28T17:05:29.857Z,96005.44
2022-08-28T17:07:57.605Z,96024.63
2022-08-28T17:10:25.575Z,96018.16
2022-08-28T17:12:53.848Z,96024.06
2022-08-28T17:15:23.081Z,96026.16
2022-08-28T17:17:51.448Z,96029.81
2022-08-28T17:20:38.085Z,96024.78
2022-08-28T17:23:06.056Z,96021.78
2022-08-28T17:25:34.318Z,96005.06
2022-08-28T17:28:02.133Z,96027.25
2022-08-28T17:30:30.047Z,96006.84
2022-08-28T17:32:58.206Z,96029.47
2022-08-28T17:35:27.331Z,96027.25
2022-08-28T17:37:55.647Z,96043.28
2022-08-28T17:40:23.754Z,96040.19
2022-08-28T17:42:53.534Z,96043.97
2022-08-28T17:45:21.311Z,96043.50
2022-08-28T17:47:48.971Z,96049.31
2022-08-28T17:50:16.634Z,96043.06
2022-08-28T17:52:45.643Z,96044.16
2022-08-28T17:55:13.322Z,96042.59
2022-08-28T17:57:41.034Z,96042.28
2022-08-28T18:00:11.533Z,96050.63
2022-08-28T18:02:42.027Z,96043.50
2022-08-28T18:05:11.401Z,96049.94
2022-08-28T18:07:39.276Z,96050.28
2022-08-28T18:10:11.625Z,96048.81
2022-08-28T18:12:39.835Z,96055.16
2022-08-28T18:15:09.729Z,96054.34
2022-08-28T18:17:38.095Z,96052.66
2022-08-28T18:20:08.874Z,96052.00
2022-08-28T18:22:37.025Z,96059.34
2022-08-28T18:25:05.187Z,96055.28
2022-08-28T18:27:34.385Z,96064.97
2022-08-28T18:30:02.552Z,96064.06
2022-08-28T18:32:30.424Z,96065.84
2022-08-28T18:34:58.066Z,96044.47
2022-08-28T18:37:25.704Z,96080.16
2022-08-28T18:39:54.370Z,96082.69
2022-08-28T18:42:22.166Z,96082.25
2022-08-28T18:44:51.435Z,96091.22
2022-08-28T18:47:19.521Z,96093.13
2022-08-28T18:49:47.196Z,96088.41
2022-08-28T18:52:14.853Z,96096.41
2022-08-28T18:54:42.699Z,96097.28
2022-08-28T18:57:12.315Z,96100.72
2022-08-28T18:59:40.001Z,96106.03
2022-08-28T19:02:09.035Z,96111.38
2022-08-28T19:04:36.882Z,96104.34
2022-08-28T19:07:06.229Z,96110.16
2022-08-28T19:09:34.985Z,96108.56
2022-08-28T19:12:03.281Z,96107.94
2022-08-28T19:14:30.948Z,96115.75
2022-08-28T19:16:59.032Z,96108.56
2022-08-28T19:19:28.288Z,96108.25
2022-08-28T19:21:56.014Z,96107.34
2022-08-28T19:24:24.306Z,96115.69
2022-08-28T19:26:51.944Z,96119.00
2022-08-28T19:29:19.628Z,96107.28
2022-08-28T19:31:47.263Z,96121.88
2022-08-28T19:34:14.909Z,96116.41
2022-08-28T19:36:44.015Z,96082.16
2022-08-28T19:39:11.954Z,96122.38
2022-08-28T19:41:40.617Z,96116.63
2022-08-28T19:44:08.534Z,96134.84
2022-08-28T19:46:36.854Z,96128.22
2022-08-28T19:49:05.856Z,96136.09
2022-08-28T19:51:34.810Z,96126.19
2022-08-28T19:54:04.129Z,96121.69
2022-08-28T19:56:33.153Z,96135.50
2022-08-28T19:59:03.118Z,96140.22
2022-08-28T20:01:33.502Z,96142.09
2022-08-28T20:04:02.394Z,96140.25
2022-08-28T20:06:32.642Z,96149.84
2022-08-28T20:09:01.196Z,96127.91
2022-08-28T20:11:31.003Z,96148.56
2022-08-28T20:14:03.850Z,96150.00
2022-08-28T20:16:34.075Z,96151.09
2022-08-28T20:19:01.977Z,96148.44
2022-08-28T20:21:37.010Z,96149.06
2022-08-28T20:24:06.244Z,96145.97
2022-08-28T20:26:36.123Z,96153.34
2022-08-28T20:29:05.013Z,96150.66
2022-08-28T20:31:32.759Z,96131.41
2022-08-28T20:34:00.505Z,96137.72
2022-08-28T20:36:28.265Z,96142.69
2022-08-28T20:38:55.984Z,96144.44
2022-08-28T20:41:23.837Z,96128.44
2022-08-28T20:43:52.955Z,96135.84
2022-08-28T20:46:20.775Z,96137.25
2022-08-28T20:48:48.662Z,96136.44
2022-08-28T20:51:16.349Z,96136.78
2022-08-28T20:53:45.430Z,96136.31
2022-08-28T20:56:13.372Z,96129.56
2022-08-28T20:58:41.125Z,96128.28
2022-08-28T21:01:10.357Z,96134.91
2022-08-28T21:03:38.052Z,96133.16
2022-08-28T21:06:06.073Z,96142.59
2022-08-28T21:08:33.732Z,96138.03
2022-08-28T21:11:01.436Z,96144.16
2022-08-28T21:13:29.075Z,96142.28
2022-08-28T21:15:56.780Z,96144.00
2022-08-28T21:18:25.783Z,96147.31
2022-08-28T21:20:55.905Z,96088.09
2022-08-28T21:23:24.259Z,96154.50
2022-08-28T21:25:51.910Z,96130.56
2022-08-28T21:28:19.784Z,96143.72
2022-08-28T21:30:47.633Z,96153.13
2022-08-28T21:33:15.390Z,96164.56
2022-08-28T21:35:45.612Z,96152.50
2022-08-28T21:38:13.448Z,96156.41
2022-08-28T21:40:41.495Z,96150.91
2022-08-28T21:43:09.224Z,96162.38
2022-08-28T21:45:37.123Z,96169.09
2022-08-28T21:48:05.046Z,96160.81
2022-08-28T21:50:32.706Z,96156.88
2022-08-28T21:53:01.730Z,96155.78
2022-08-28T21:55:29.422Z,96158.44
2022-08-28T21:57:57.249Z,96161.28
2022-08-28T22:00:25.092Z,96158.16
2022-08-28T22:02:52.815Z,96152.97
2022-08-28T22:05:21.364Z,96152.97
2022-08-28T22:07:49.099Z,96164.72
2022-08-28T22:10:18.141Z,96160.03
2022-08-28T22:12:45.786Z,96157.19
2022-08-28T22:15:13.569Z,96163.47
2022-08-28T22:17:41.309Z,96152.16
2022-08-28T22:20:10.212Z,96165.53
2022-08-28T22:22:55.413Z,96148.09
2022-08-28T22:25:24.678Z,96163.44
2022-08-28T22:27:52.436Z,96161.59
2022-08-28T22:30:20.977Z,96094.31
2022-08-28T22:32:48.640Z,96155.63
2022-08-28T22:35:16.404Z,96123.78
2022-08-28T22:37:44.116Z,96160.78
2022-08-28T22:40:12.960Z,96161.88
2022-08-28T22:42:42.699Z,96165.94
2022-08-28T22:45:11.276Z,96163.59
2022-08-28T22:47:39.560Z,96167.84
2022-08-28T22:50:08.484Z,96157.50
2022-08-28T22:52:37.137Z,96157.19
2022-08-28T22:55:06.667Z,96085.19
2022-08-28T22:57:34.438Z,96133.50
2022-08-28T23:00:06.202Z,96172.97
2022-08-28T23:02:34.831Z,96166.41
2022-08-28T23:05:02.833Z,96167.66
2022-08-28T23:07:30.674Z,96153.69
2022-08-28T23:09:58.333Z,96143.69
2022-08-28T23:12:25.976Z,96160.28
2022-08-28T23:14:53.721Z,96137.06
2022-08-28T23:17:22.812Z,96154.00
2022-08-28T23:19:52.686Z,96170.16
2022-08-28T23:22:20.334Z,96164.66
2022-08-28T23:24:48.753Z,96156.19
2022-08-28T23:27:35.443Z,96170.44
2022-08-28T23:30:03.901Z,96068.50
2022-08-28T23:32:33.788Z,96141.53
2022-08-28T23:35:28.464Z,96171.06
2022-08-28T23:37:56.215Z,96163.88
2022-08-28T23:40:25.158Z,96178.28
2022-08-28T23:42:56.093Z,96155.81
2022-08-28T23:45:23.879Z,96155.81
2022-08-28T23:47:52.982Z,96157.84
2022-08-28T23:50:23.600Z,96163.50
2022-08-28T23:52:52.901Z,96151.09
2022-08-28T23:55:21.085Z,96154.75
2022-08-28T23:57:52.273Z,96081.34
